sensor_id;sensor_type;location;lat;lon;timestamp;P1;durP1;ratioP1;P2;durP2;ratioP2
870;SDS011;422;51.280;7.236;2022-09-29T00:00:53;14.33;;;12.70;;
870;SDS011;422;51.280;7.236;2022-09-29T00:03:21;14.30;;;11.33;;
870;SDS011;422;51.280;7.236;2022-09-29T00:05:49;13.57;;;11.67;;
870;SDS011;422;51.280;7.236;2022-09-29T00:08:21;12.67;;;11.07;;
870;SDS011;422;51.280;7.236;2022-09-29T00:10:49;13.43;;;11.67;;
870;SDS011;422;51.280;7.236;2022-09-29T00:13:18;12.33;;;11.03;;
870;SDS011;422;51.280;7.236;2022-09-29T00:15:55;12.77;;;11.37;;
870;SDS011;422;51.280;7.236;2022-09-29T00:18:24;12.30;;;11.00;;
870;SDS011;422;51.280;7.236;2022-09-29T00:20:57;11.57;;;10.43;;
870;SDS011;422;51.280;7.236;2022-09-29T00:23:25;13.20;;;11.60;;
870;SDS011;422;51.280;7.236;2022-09-29T00:26:06;12.17;;;10.97;;
870;SDS011;422;51.280;7.236;2022-09-29T00:28:37;11.70;;;10.50;;
870;SDS011;422;51.280;7.236;2022-09-29T00:31:11;12.63;;;11.43;;
870;SDS011;422;51.280;7.236;2022-09-29T00:33:38;15.13;;;12.80;;
870;SDS011;422;51.280;7.236;2022-09-29T00:36:07;13.13;;;10.90;;
870;SDS011;422;51.280;7.236;2022-09-29T00:38:37;12.30;;;11.00;;
870;SDS011;422;51.280;7.236;2022-09-29T00:41:06;14.27;;;11.10;;
870;SDS011;422;51.280;7.236;2022-09-29T00:43:53;13.60;;;12.20;;
870;SDS011;422;51.280;7.236;2022-09-29T00:46:25;12.60;;;11.30;;
870;SDS011;422;51.280;7.236;2022-09-29T00:49:00;12.27;;;10.90;;
870;SDS011;422;51.280;7.236;2022-09-29T00:51:29;13.63;;;11.40;;
870;SDS011;422;51.280;7.236;2022-09-29T00:54:00;13.23;;;11.83;;
870;SDS011;422;51.280;7.236;2022-09-29T00:56:31;14.97;;;12.50;;
870;SDS011;422;51.280;7.236;2022-09-29T00:59:01;13.10;;;11.70;;
870;SDS011;422;51.280;7.236;2022-09-29T01:01:32;12.37;;;11.07;;
870;SDS011;422;51.280;7.236;2022-09-29T01:04:00;13.23;;;10.40;;
870;SDS011;422;51.280;7.236;2022-09-29T01:06:33;12.43;;;11.10;;
870;SDS011;422;51.280;7.236;2022-09-29T01:09:05;12.53;;;11.23;;
870;SDS011;422;51.280;7.236;2022-09-29T01:11:34;12.30;;;10.77;;
870;SDS011;422;51.280;7.236;2022-09-29T01:14:03;14.47;;;11.57;;
870;SDS011;422;51.280;7.236;2022-09-29T01:16:34;13.17;;;11.47;;
870;SDS011;422;51.280;7.236;2022-09-29T01:19:05;16.10;;;11.70;;
870;SDS011;422;51.280;7.236;2022-09-29T01:21:34;17.83;;;12.50;;
870;SDS011;422;51.280;7.236;2022-09-29T01:24:18;14.00;;;11.63;;
870;SDS011;422;51.280;7.236;2022-09-29T01:27:18;12.83;;;11.10;;
870;SDS011;422;51.280;7.236;2022-09-29T01:30:08;16.60;;;13.37;;
870;SDS011;422;51.280;7.236;2022-09-29T01:35:40;11.47;;;10.27;;
870;SDS011;422;51.280;7.236;2022-09-29T01:38:19;13.40;;;12.00;;
870;SDS011;422;51.280;7.236;2022-09-29T01:40:58;16.17;;;14.40;;
870;SDS011;422;51.280;7.236;2022-09-29T01:43:33;13.87;;;11.27;;
870;SDS011;422;51.280;7.236;2022-09-29T01:46:04;12.97;;;11.57;;
870;SDS011;422;51.280;7.236;2022-09-29T01:48:38;13.40;;;11.50;;
870;SDS011;422;51.280;7.236;2022-09-29T01:51:11;12.70;;;11.40;;
870;SDS011;422;51.280;7.236;2022-09-29T01:53:42;16.20;;;12.67;;
870;SDS011;422;51.280;7.236;2022-09-29T01:56:15;17.33;;;12.27;;
870;SDS011;422;51.280;7.236;2022-09-29T01:58:50;13.83;;;10.73;;
870;SDS011;422;51.280;7.236;2022-09-29T02:01:22;13.53;;;11.97;;
870;SDS011;422;51.280;7.236;2022-09-29T02:03:55;13.43;;;12.03;;
870;SDS011;422;51.280;7.236;2022-09-29T02:06:26;13.00;;;11.50;;
870;SDS011;422;51.280;7.236;2022-09-29T02:09:01;22.03;;;14.50;;
870;SDS011;422;51.280;7.236;2022-09-29T02:11:30;15.27;;;13.17;;
870;SDS011;422;51.280;7.236;2022-09-29T02:14:01;21.43;;;13.50;;
870;SDS011;422;51.280;7.236;2022-09-29T02:16:34;26.23;;;14.10;;
870;SDS011;422;51.280;7.236;2022-09-29T02:19:07;30.40;;;13.67;;
870;SDS011;422;51.280;7.236;2022-09-29T02:21:39;33.87;;;13.17;;
870;SDS011;422;51.280;7.236;2022-09-29T02:24:07;17.10;;;12.80;;
870;SDS011;422;51.280;7.236;2022-09-29T02:26:35;20.57;;;10.83;;
870;SDS011;422;51.280;7.236;2022-09-29T02:29:04;21.90;;;12.80;;
870;SDS011;422;51.280;7.236;2022-09-29T02:31:33;15.17;;;11.00;;
870;SDS011;422;51.280;7.236;2022-09-29T02:34:03;15.67;;;11.47;;
870;SDS011;422;51.280;7.236;2022-09-29T02:36:37;20.30;;;11.30;;
870;SDS011;422;51.280;7.236;2022-09-29T02:39:13;27.23;;;11.13;;
870;SDS011;422;51.280;7.236;2022-09-29T02:41:49;25.17;;;12.67;;
870;SDS011;422;51.280;7.236;2022-09-29T02:44:32;21.30;;;12.67;;
870;SDS011;422;51.280;7.236;2022-09-29T02:47:17;22.00;;;12.03;;
870;SDS011;422;51.280;7.236;2022-09-29T02:50:04;17.17;;;10.07;;
870;SDS011;422;51.280;7.236;2022-09-29T02:52:52;15.10;;;10.90;;
870;SDS011;422;51.280;7.236;2022-09-29T02:55:30;16.20;;;12.30;;
870;SDS011;422;51.280;7.236;2022-09-29T03:01:01;13.67;;;11.57;;
870;SDS011;422;51.280;7.236;2022-09-29T03:03:31;15.60;;;11.50;;
870;SDS011;422;51.280;7.236;2022-09-29T03:06:00;30.80;;;12.73;;
870;SDS011;422;51.280;7.236;2022-09-29T03:08:27;33.00;;;11.90;;
870;SDS011;422;51.280;7.236;2022-09-29T03:10:57;21.37;;;12.07;;
870;SDS011;422;51.280;7.236;2022-09-29T03:13:25;17.97;;;12.50;;
870;SDS011;422;51.280;7.236;2022-09-29T03:15:52;13.70;;;11.20;;
870;SDS011;422;51.280;7.236;2022-09-29T03:18:19;13.13;;;11.10;;
870;SDS011;422;51.280;7.236;2022-09-29T03:20:49;15.30;;;11.97;;
870;SDS011;422;51.280;7.236;2022-09-29T03:23:20;17.57;;;12.83;;
870;SDS011;422;51.280;7.236;2022-09-29T03:25:47;13.90;;;11.60;;
870;SDS011;422;51.280;7.236;2022-09-29T03:28:15;22.63;;;10.87;;
870;SDS011;422;51.280;7.236;2022-09-29T03:30:42;23.03;;;9.90;;
870;SDS011;422;51.280;7.236;2022-09-29T03:33:10;15.07;;;9.63;;
870;SDS011;422;51.280;7.236;2022-09-29T03:35:37;12.07;;;10.73;;
870;SDS011;422;51.280;7.236;2022-09-29T03:38:07;15.40;;;10.23;;
870;SDS011;422;51.280;7.236;2022-09-29T03:40:36;31.13;;;11.97;;
870;SDS011;422;51.280;7.236;2022-09-29T03:43:03;23.33;;;11.37;;
870;SDS011;422;51.280;7.236;2022-09-29T03:45:30;30.70;;;12.00;;
870;SDS011;422;51.280;7.236;2022-09-29T03:47:57;26.43;;;10.13;;
870;SDS011;422;51.280;7.236;2022-09-29T03:50:25;16.73;;;10.70;;
870;SDS011;422;51.280;7.236;2022-09-29T03:52:52;21.93;;;10.73;;
870;SDS011;422;51.280;7.236;2022-09-29T03:55:19;14.30;;;9.67;;
870;SDS011;422;51.280;7.236;2022-09-29T03:57:49;21.23;;;10.80;;
870;SDS011;422;51.280;7.236;2022-09-29T04:00:16;21.30;;;10.27;;
870;SDS011;422;51.280;7.236;2022-09-29T04:02:43;23.83;;;9.93;;
870;SDS011;422;51.280;7.236;2022-09-29T04:05:10;17.53;;;10.87;;
870;SDS011;422;51.280;7.236;2022-09-29T04:07:38;13.50;;;10.30;;
870;SDS011;422;51.280;7.236;2022-09-29T04:10:08;12.80;;;9.20;;
870;SDS011;422;51.280;7.236;2022-09-29T04:12:35;20.73;;;11.17;;
870;SDS011;422;51.280;7.236;2022-09-29T04:15:05;22.63;;;10.90;;
870;SDS011;422;51.280;7.236;2022-09-29T04:17:32;34.37;;;13.30;;
870;SDS011;422;51.280;7.236;2022-09-29T04:20:00;17.93;;;10.77;;
870;SDS011;422;51.280;7.236;2022-09-29T04:22:27;26.57;;;13.40;;
870;SDS011;422;51.280;7.236;2022-09-29T04:24:54;28.67;;;12.20;;
870;SDS011;422;51.280;7.236;2022-09-29T04:27:22;15.57;;;10.63;;
870;SDS011;422;51.280;7.236;2022-09-29T04:29:49;14.90;;;11.27;;
870;SDS011;422;51.280;7.236;2022-09-29T04:32:18;19.10;;;13.30;;
870;SDS011;422;51.280;7.236;2022-09-29T04:34:45;15.20;;;12.17;;
870;SDS011;422;51.280;7.236;2022-09-29T04:37:13;13.77;;;11.43;;
870;SDS011;422;51.280;7.236;2022-09-29T04:39:41;23.27;;;11.13;;
870;SDS011;422;51.280;7.236;2022-09-29T04:42:08;58.60;;;13.73;;
870;SDS011;422;51.280;7.236;2022-09-29T04:44:36;37.17;;;12.03;;
870;SDS011;422;51.280;7.236;2022-09-29T04:47:03;26.90;;;10.70;;
870;SDS011;422;51.280;7.236;2022-09-29T04:49:32;28.67;;;11.77;;
870;SDS011;422;51.280;7.236;2022-09-29T04:51:59;14.10;;;9.67;;
870;SDS011;422;51.280;7.236;2022-09-29T04:54:28;11.77;;;10.27;;
870;SDS011;422;51.280;7.236;2022-09-29T04:56:57;11.63;;;10.43;;
870;SDS011;422;51.280;7.236;2022-09-29T04:59:25;11.53;;;10.33;;
870;SDS011;422;51.280;7.236;2022-09-29T05:01:55;13.07;;;9.70;;
870;SDS011;422;51.280;7.236;2022-09-29T05:04:23;14.00;;;11.33;;
870;SDS011;422;51.280;7.236;2022-09-29T05:06:52;14.13;;;11.60;;
870;SDS011;422;51.280;7.236;2022-09-29T05:09:20;15.40;;;12.10;;
870;SDS011;422;51.280;7.236;2022-09-29T05:11:47;14.13;;;12.37;;
870;SDS011;422;51.280;7.236;2022-09-29T05:14:14;14.27;;;12.17;;
870;SDS011;422;51.280;7.236;2022-09-29T05:16:41;12.93;;;11.13;;
870;SDS011;422;51.280;7.236;2022-09-29T05:19:09;12.70;;;11.17;;
870;SDS011;422;51.280;7.236;2022-09-29T05:21:36;13.30;;;11.23;;
870;SDS011;422;51.280;7.236;2022-09-29T05:24:04;14.20;;;11.57;;
870;SDS011;422;51.280;7.236;2022-09-29T05:26:32;12.87;;;11.17;;
870;SDS011;422;51.280;7.236;2022-09-29T05:28:59;12.93;;;11.23;;
870;SDS011;422;51.280;7.236;2022-09-29T05:31:29;12.20;;;10.33;;
870;SDS011;422;51.280;7.236;2022-09-29T05:33:57;12.80;;;11.50;;
870;SDS011;422;51.280;7.236;2022-09-29T05:36:24;13.40;;;11.07;;
870;SDS011;422;51.280;7.236;2022-09-29T05:38:51;12.80;;;10.33;;
870;SDS011;422;51.280;7.236;2022-09-29T05:41:21;12.10;;;10.40;;
870;SDS011;422;51.280;7.236;2022-09-29T05:43:49;12.30;;;10.60;;
870;SDS011;422;51.280;7.236;2022-09-29T05:46:17;12.60;;;11.30;;
870;SDS011;422;51.280;7.236;2022-09-29T05:48:45;12.53;;;10.63;;
870;SDS011;422;51.280;7.236;2022-09-29T05:51:13;12.87;;;11.30;;
870;SDS011;422;51.280;7.236;2022-09-29T05:53:41;13.57;;;10.87;;
870;SDS011;422;51.280;7.236;2022-09-29T05:56:09;13.70;;;10.30;;
870;SDS011;422;51.280;7.236;2022-09-29T05:58:42;14.17;;;11.23;;
870;SDS011;422;51.280;7.236;2022-09-29T06:01:11;12.33;;;10.93;;
870;SDS011;422;51.280;7.236;2022-09-29T06:03:40;15.93;;;12.30;;
870;SDS011;422;51.280;7.236;2022-09-29T06:06:07;15.67;;;11.60;;
870;SDS011;422;51.280;7.236;2022-09-29T06:08:36;12.83;;;10.13;;
870;SDS011;422;51.280;7.236;2022-09-29T06:11:04;13.03;;;10.40;;
870;SDS011;422;51.280;7.236;2022-09-29T06:13:36;15.37;;;12.17;;
870;SDS011;422;51.280;7.236;2022-09-29T06:16:07;13.67;;;11.00;;
870;SDS011;422;51.280;7.236;2022-09-29T06:18:37;20.13;;;11.43;;
870;SDS011;422;51.280;7.236;2022-09-29T06:21:07;12.07;;;10.83;;
870;SDS011;422;51.280;7.236;2022-09-29T06:23:36;12.67;;;9.67;;
870;SDS011;422;51.280;7.236;2022-09-29T06:26:05;12.10;;;10.80;;
870;SDS011;422;51.280;7.236;2022-09-29T06:28:34;14.67;;;10.10;;
870;SDS011;422;51.280;7.236;2022-09-29T06:31:02;11.87;;;10.57;;
870;SDS011;422;51.280;7.236;2022-09-29T06:33:33;12.93;;;10.50;;
870;SDS011;422;51.280;7.236;2022-09-29T06:36:02;13.87;;;11.47;;
870;SDS011;422;51.280;7.236;2022-09-29T06:38:51;13.43;;;11.47;;
870;SDS011;422;51.280;7.236;2022-09-29T06:41:18;12.70;;;10.93;;
870;SDS011;422;51.280;7.236;2022-09-29T06:43:48;13.77;;;11.10;;
870;SDS011;422;51.280;7.236;2022-09-29T06:46:17;12.43;;;11.23;;
870;SDS011;422;51.280;7.236;2022-09-29T06:48:46;12.47;;;11.17;;
870;SDS011;422;51.280;7.236;2022-09-29T06:51:13;24.60;;;11.80;;
870;SDS011;422;51.280;7.236;2022-09-29T06:53:40;11.50;;;10.30;;
870;SDS011;422;51.280;7.236;2022-09-29T06:56:08;10.97;;;9.60;;
870;SDS011;422;51.280;7.236;2022-09-29T06:58:36;9.10;;;8.10;;
870;SDS011;422;51.280;7.236;2022-09-29T07:01:04;11.53;;;10.03;;
870;SDS011;422;51.280;7.236;2022-09-29T07:03:31;10.83;;;9.70;;
870;SDS011;422;51.280;7.236;2022-09-29T07:06:02;9.23;;;8.23;;
870;SDS011;422;51.280;7.236;2022-09-29T07:08:31;13.70;;;9.43;;
870;SDS011;422;51.280;7.236;2022-09-29T07:11:05;9.60;;;8.70;;
870;SDS011;422;51.280;7.236;2022-09-29T07:13:33;9.80;;;8.90;;
870;SDS011;422;51.280;7.236;2022-09-29T07:16:04;10.93;;;9.83;;
870;SDS011;422;51.280;7.236;2022-09-29T07:18:33;14.40;;;12.90;;
870;SDS011;422;51.280;7.236;2022-09-29T07:21:03;13.43;;;12.07;;
870;SDS011;422;51.280;7.236;2022-09-29T07:23:37;14.97;;;13.47;;
870;SDS011;422;51.280;7.236;2022-09-29T07:26:06;10.93;;;9.93;;
870;SDS011;422;51.280;7.236;2022-09-29T07:28:37;16.87;;;15.10;;
870;SDS011;422;51.280;7.236;2022-09-29T07:31:04;13.53;;;11.47;;
870;SDS011;422;51.280;7.236;2022-09-29T07:33:33;13.40;;;12.03;;
870;SDS011;422;51.280;7.236;2022-09-29T07:36:00;11.20;;;10.00;;
870;SDS011;422;51.280;7.236;2022-09-29T07:38:29;11.20;;;10.20;;
870;SDS011;422;51.280;7.236;2022-09-29T07:40:58;10.47;;;9.37;;
870;SDS011;422;51.280;7.236;2022-09-29T07:43:26;10.20;;;9.30;;
870;SDS011;422;51.280;7.236;2022-09-29T07:45:54;9.80;;;8.80;;
870;SDS011;422;51.280;7.236;2022-09-29T07:48:22;10.23;;;9.23;;
870;SDS011;422;51.280;7.236;2022-09-29T07:50:49;10.13;;;8.43;;
870;SDS011;422;51.280;7.236;2022-09-29T07:53:19;8.90;;;8.00;;
870;SDS011;422;51.280;7.236;2022-09-29T07:55:47;8.70;;;7.90;;
870;SDS011;422;51.280;7.236;2022-09-29T07:58:15;10.87;;;9.77;;
870;SDS011;422;51.280;7.236;2022-09-29T08:00:42;10.20;;;9.20;;
870;SDS011;422;51.280;7.236;2022-09-29T08:03:09;9.43;;;8.63;;
870;SDS011;422;51.280;7.236;2022-09-29T08:05:37;9.50;;;8.20;;
870;SDS011;422;51.280;7.236;2022-09-29T08:08:08;8.73;;;7.93;;
870;SDS011;422;51.280;7.236;2022-09-29T08:10:36;9.17;;;8.23;;
870;SDS011;422;51.280;7.236;2022-09-29T08:13:04;11.37;;;9.30;;
870;SDS011;422;51.280;7.236;2022-09-29T08:15:31;9.03;;;8.23;;
870;SDS011;422;51.280;7.236;2022-09-29T08:17:58;9.47;;;8.57;;
870;SDS011;422;51.280;7.236;2022-09-29T08:20:26;11.33;;;8.87;;
870;SDS011;422;51.280;7.236;2022-09-29T08:23:02;10.03;;;9.03;;
870;SDS011;422;51.280;7.236;2022-09-29T08:25:31;8.87;;;8.07;;
870;SDS011;422;51.280;7.236;2022-09-29T08:28:00;10.87;;;9.10;;
870;SDS011;422;51.280;7.236;2022-09-29T08:30:28;9.70;;;8.70;;
870;SDS011;422;51.280;7.236;2022-09-29T08:32:55;11.53;;;8.40;;
870;SDS011;422;51.280;7.236;2022-09-29T08:35:23;10.97;;;9.90;;
870;SDS011;422;51.280;7.236;2022-09-29T08:37:55;10.07;;;9.07;;
870;SDS011;422;51.280;7.236;2022-09-29T08:40:23;9.47;;;8.67;;
870;SDS011;422;51.280;7.236;2022-09-29T08:42:55;9.80;;;8.90;;
870;SDS011;422;51.280;7.236;2022-09-29T08:45:36;9.30;;;8.50;;
870;SDS011;422;51.280;7.236;2022-09-29T08:48:08;8.80;;;8.10;;
870;SDS011;422;51.280;7.236;2022-09-29T08:50:40;8.80;;;8.10;;
870;SDS011;422;51.280;7.236;2022-09-29T08:53:13;9.80;;;8.90;;
870;SDS011;422;51.280;7.236;2022-09-29T08:55:44;10.37;;;9.40;;
870;SDS011;422;51.280;7.236;2022-09-29T08:58:18;9.80;;;8.80;;
870;SDS011;422;51.280;7.236;2022-09-29T09:00:49;9.53;;;8.73;;
870;SDS011;422;51.280;7.236;2022-09-29T09:06:47;9.97;;;9.17;;
870;SDS011;422;51.280;7.236;2022-09-29T09:09:39;8.90;;;7.97;;
870;SDS011;422;51.280;7.236;2022-09-29T09:12:30;8.70;;;7.90;;
870;SDS011;422;51.280;7.236;2022-09-29T09:15:21;8.93;;;8.13;;
870;SDS011;422;51.280;7.236;2022-09-29T09:21:09;9.40;;;7.83;;
870;SDS011;422;51.280;7.236;2022-09-29T09:23:52;9.80;;;7.57;;
870;SDS011;422;51.280;7.236;2022-09-29T09:26:22;7.57;;;6.80;;
870;SDS011;422;51.280;7.236;2022-09-29T09:28:59;7.97;;;7.17;;
870;SDS011;422;51.280;7.236;2022-09-29T09:31:32;7.97;;;7.20;;
870;SDS011;422;51.280;7.236;2022-09-29T09:34:05;7.90;;;7.20;;
870;SDS011;422;51.280;7.236;2022-09-29T09:36:40;7.30;;;6.73;;
870;SDS011;422;51.280;7.236;2022-09-29T09:39:12;8.70;;;7.40;;
870;SDS011;422;51.280;7.236;2022-09-29T09:41:44;7.53;;;6.83;;
870;SDS011;422;51.280;7.236;2022-09-29T09:44:15;8.27;;;7.47;;
870;SDS011;422;51.280;7.236;2022-09-29T09:46:47;7.70;;;7.00;;
870;SDS011;422;51.280;7.236;2022-09-29T09:49:18;7.70;;;7.00;;
870;SDS011;422;51.280;7.236;2022-09-29T09:51:49;7.60;;;7.00;;
870;SDS011;422;51.280;7.236;2022-09-29T09:54:26;7.70;;;6.90;;
870;SDS011;422;51.280;7.236;2022-09-29T10:00:07;7.73;;;6.57;;
870;SDS011;422;51.280;7.236;2022-09-29T10:02:40;7.97;;;6.80;;
870;SDS011;422;51.280;7.236;2022-09-29T10:05:10;7.40;;;6.70;;
870;SDS011;422;51.280;7.236;2022-09-29T10:07:39;9.60;;;5.70;;
870;SDS011;422;51.280;7.236;2022-09-29T10:10:12;8.20;;;6.00;;
870;SDS011;422;51.280;7.236;2022-09-29T10:12:46;7.10;;;6.40;;
870;SDS011;422;51.280;7.236;2022-09-29T10:15:19;7.00;;;6.30;;
870;SDS011;422;51.280;7.236;2022-09-29T10:17:57;7.87;;;5.97;;
870;SDS011;422;51.280;7.236;2022-09-29T10:20:36;7.70;;;6.00;;
870;SDS011;422;51.280;7.236;2022-09-29T10:23:18;6.00;;;5.40;;
870;SDS011;422;51.280;7.236;2022-09-29T10:25:53;5.90;;;5.40;;
870;SDS011;422;51.280;7.236;2022-09-29T10:28:25;6.10;;;5.50;;
870;SDS011;422;51.280;7.236;2022-09-29T10:30:55;6.67;;;6.07;;
870;SDS011;422;51.280;7.236;2022-09-29T10:33:24;5.90;;;5.30;;
870;SDS011;422;51.280;7.236;2022-09-29T10:36:03;5.67;;;5.17;;
870;SDS011;422;51.280;7.236;2022-09-29T10:38:35;5.43;;;4.93;;
870;SDS011;422;51.280;7.236;2022-09-29T10:41:11;5.87;;;5.37;;
870;SDS011;422;51.280;7.236;2022-09-29T10:43:39;10.63;;;6.30;;
870;SDS011;422;51.280;7.236;2022-09-29T10:49:15;8.27;;;5.97;;
870;SDS011;422;51.280;7.236;2022-09-29T10:51:49;6.50;;;5.70;;
870;SDS011;422;51.280;7.236;2022-09-29T10:54:20;5.90;;;4.83;;
870;SDS011;422;51.280;7.236;2022-09-29T10:56:52;7.60;;;5.80;;
870;SDS011;422;51.280;7.236;2022-09-29T10:59:20;6.97;;;5.90;;
870;SDS011;422;51.280;7.236;2022-09-29T11:01:50;5.43;;;5.03;;
870;SDS011;422;51.280;7.236;2022-09-29T11:04:21;6.17;;;5.10;;
870;SDS011;422;51.280;7.236;2022-09-29T11:06:54;5.00;;;4.50;;
870;SDS011;422;51.280;7.236;2022-09-29T11:09:34;6.10;;;4.80;;
870;SDS011;422;51.280;7.236;2022-09-29T11:12:04;4.53;;;4.13;;
870;SDS011;422;51.280;7.236;2022-09-29T11:14:47;3.90;;;3.50;;
870;SDS011;422;51.280;7.236;2022-09-29T11:17:22;3.67;;;3.33;;
870;SDS011;422;51.280;7.236;2022-09-29T11:19:52;8.33;;;4.77;;
870;SDS011;422;51.280;7.236;2022-09-29T11:22:27;4.63;;;4.17;;
870;SDS011;422;51.280;7.236;2022-09-29T11:31:13;4.13;;;3.83;;
870;SDS011;422;51.280;7.236;2022-09-29T11:33:50;6.77;;;4.27;;
870;SDS011;422;51.280;7.236;2022-09-29T11:36:29;4.40;;;4.00;;
870;SDS011;422;51.280;7.236;2022-09-29T11:42:03;6.40;;;5.57;;
870;SDS011;422;51.280;7.236;2022-09-29T11:44:43;6.30;;;5.50;;
870;SDS011;422;51.280;7.236;2022-09-29T11:50:20;7.00;;;4.70;;
870;SDS011;422;51.280;7.236;2022-09-29T11:52:58;5.80;;;5.13;;
870;SDS011;422;51.280;7.236;2022-09-29T11:55:43;5.50;;;5.00;;
870;SDS011;422;51.280;7.236;2022-09-29T11:58:27;5.40;;;4.90;;
870;SDS011;422;51.280;7.236;2022-09-29T12:01:08;5.90;;;4.60;;
870;SDS011;422;51.280;7.236;2022-09-29T12:03:48;4.70;;;4.30;;
870;SDS011;422;51.280;7.236;2022-09-29T12:06:34;8.30;;;5.77;;
870;SDS011;422;51.280;7.236;2022-09-29T12:09:22;11.60;;;9.50;;
870;SDS011;422;51.280;7.236;2022-09-29T12:12:22;6.63;;;6.03;;
870;SDS011;422;51.280;7.236;2022-09-29T12:15:01;5.23;;;3.63;;
870;SDS011;422;51.280;7.236;2022-09-29T12:17:34;5.23;;;4.10;;
870;SDS011;422;51.280;7.236;2022-09-29T12:20:12;5.57;;;4.60;;
870;SDS011;422;51.280;7.236;2022-09-29T12:22:43;9.40;;;7.37;;
870;SDS011;422;51.280;7.236;2022-09-29T12:25:17;6.37;;;3.70;;
870;SDS011;422;51.280;7.236;2022-09-29T12:27:49;5.03;;;4.00;;
870;SDS011;422;51.280;7.236;2022-09-29T12:30:21;5.60;;;4.00;;
870;SDS011;422;51.280;7.236;2022-09-29T12:32:55;6.87;;;3.93;;
870;SDS011;422;51.280;7.236;2022-09-29T12:35:30;6.13;;;3.30;;
870;SDS011;422;51.280;7.236;2022-09-29T12:38:05;5.17;;;4.10;;
870;SDS011;422;51.280;7.236;2022-09-29T12:40:41;5.60;;;5.10;;
870;SDS011;422;51.280;7.236;2022-09-29T12:43:19;7.20;;;4.87;;
870;SDS011;422;51.280;7.236;2022-09-29T12:45:55;5.53;;;4.60;;
870;SDS011;422;51.280;7.236;2022-09-29T12:48:37;5.83;;;3.70;;
870;SDS011;422;51.280;7.236;2022-09-29T12:51:13;4.77;;;3.60;;
870;SDS011;422;51.280;7.236;2022-09-29T12:53:55;4.00;;;3.70;;
870;SDS011;422;51.280;7.236;2022-09-29T12:56:34;4.63;;;3.40;;
870;SDS011;422;51.280;7.236;2022-09-29T12:59:04;4.33;;;3.90;;
870;SDS011;422;51.280;7.236;2022-09-29T13:01:36;5.20;;;3.70;;
870;SDS011;422;51.280;7.236;2022-09-29T13:04:31;3.73;;;3.43;;
870;SDS011;422;51.280;7.236;2022-09-29T13:10:23;4.13;;;3.00;;
870;SDS011;422;51.280;7.236;2022-09-29T13:16:26;4.77;;;3.37;;
870;SDS011;422;51.280;7.236;2022-09-29T13:22:26;5.03;;;4.27;;
870;SDS011;422;51.280;7.236;2022-09-29T13:25:12;6.30;;;4.20;;
870;SDS011;422;51.280;7.236;2022-09-29T13:27:47;6.20;;;3.93;;
870;SDS011;422;51.280;7.236;2022-09-29T13:30:17;3.93;;;3.53;;
870;SDS011;422;51.280;7.236;2022-09-29T13:32:48;6.17;;;4.00;;
870;SDS011;422;51.280;7.236;2022-09-29T13:35:19;5.80;;;3.80;;
870;SDS011;422;51.280;7.236;2022-09-29T13:37:49;6.10;;;3.30;;
870;SDS011;422;51.280;7.236;2022-09-29T13:40:19;3.47;;;3.17;;
870;SDS011;422;51.280;7.236;2022-09-29T13:42:49;4.53;;;2.80;;
870;SDS011;422;51.280;7.236;2022-09-29T13:51:41;7.00;;;3.27;;
870;SDS011;422;51.280;7.236;2022-09-29T13:54:21;4.70;;;3.43;;
870;SDS011;422;51.280;7.236;2022-09-29T13:56:58;3.20;;;2.90;;
870;SDS011;422;51.280;7.236;2022-09-29T13:59:29;3.40;;;3.10;;
870;SDS011;422;51.280;7.236;2022-09-29T14:01:59;3.13;;;2.83;;
870;SDS011;422;51.280;7.236;2022-09-29T14:04:36;3.90;;;3.17;;
870;SDS011;422;51.280;7.236;2022-09-29T14:10:06;3.53;;;2.77;;
870;SDS011;422;51.280;7.236;2022-09-29T14:12:45;4.07;;;3.20;;
870;SDS011;422;51.280;7.236;2022-09-29T14:15:18;4.47;;;3.00;;
870;SDS011;422;51.280;7.236;2022-09-29T14:17:48;4.60;;;3.53;;
870;SDS011;422;51.280;7.236;2022-09-29T14:20:21;4.00;;;3.43;;
870;SDS011;422;51.280;7.236;2022-09-29T14:22:52;3.20;;;2.90;;
870;SDS011;422;51.280;7.236;2022-09-29T14:25:30;4.60;;;3.17;;
870;SDS011;422;51.280;7.236;2022-09-29T14:28:06;4.53;;;3.20;;
870;SDS011;422;51.280;7.236;2022-09-29T14:30:41;3.30;;;3.00;;
870;SDS011;422;51.280;7.236;2022-09-29T14:33:12;6.40;;;4.20;;
870;SDS011;422;51.280;7.236;2022-09-29T14:35:47;6.13;;;3.60;;
870;SDS011;422;51.280;7.236;2022-09-29T14:38:26;5.20;;;4.50;;
870;SDS011;422;51.280;7.236;2022-09-29T14:41:00;4.60;;;3.10;;
870;SDS011;422;51.280;7.236;2022-09-29T14:43:44;4.07;;;2.87;;
870;SDS011;422;51.280;7.236;2022-09-29T14:49:44;5.30;;;3.50;;
870;SDS011;422;51.280;7.236;2022-09-29T14:52:53;10.37;;;5.47;;
870;SDS011;422;51.280;7.236;2022-09-29T14:55:35;3.93;;;3.57;;
870;SDS011;422;51.280;7.236;2022-09-29T15:01:05;4.20;;;3.30;;
870;SDS011;422;51.280;7.236;2022-09-29T15:03:41;4.00;;;3.57;;
870;SDS011;422;51.280;7.236;2022-09-29T15:06:12;6.33;;;5.10;;
870;SDS011;422;51.280;7.236;2022-09-29T15:08:53;7.20;;;5.80;;
870;SDS011;422;51.280;7.236;2022-09-29T15:11:27;9.33;;;6.20;;
870;SDS011;422;51.280;7.236;2022-09-29T15:14:15;6.33;;;5.00;;
870;SDS011;422;51.280;7.236;2022-09-29T15:16:48;6.53;;;3.93;;
870;SDS011;422;51.280;7.236;2022-09-29T15:19:30;7.20;;;5.40;;
870;SDS011;422;51.280;7.236;2022-09-29T15:22:24;6.80;;;3.80;;
870;SDS011;422;51.280;7.236;2022-09-29T15:25:21;9.23;;;5.90;;
870;SDS011;422;51.280;7.236;2022-09-29T15:27:54;5.83;;;5.07;;
870;SDS011;422;51.280;7.236;2022-09-29T15:30:25;5.20;;;4.70;;
870;SDS011;422;51.280;7.236;2022-09-29T15:33:02;4.43;;;4.03;;
870;SDS011;422;51.280;7.236;2022-09-29T15:35:37;3.90;;;3.50;;
870;SDS011;422;51.280;7.236;2022-09-29T15:38:19;4.10;;;3.80;;
870;SDS011;422;51.280;7.236;2022-09-29T15:41:02;3.93;;;3.20;;
870;SDS011;422;51.280;7.236;2022-09-29T15:43:38;5.60;;;3.47;;
870;SDS011;422;51.280;7.236;2022-09-29T15:46:11;3.70;;;3.33;;
870;SDS011;422;51.280;7.236;2022-09-29T15:49:00;3.87;;;3.33;;
870;SDS011;422;51.280;7.236;2022-09-29T15:51:39;6.37;;;3.73;;
870;SDS011;422;51.280;7.236;2022-09-29T15:54:09;3.90;;;3.50;;
870;SDS011;422;51.280;7.236;2022-09-29T15:56:39;3.67;;;2.90;;
870;SDS011;422;51.280;7.236;2022-09-29T15:59:39;3.97;;;3.03;;
870;SDS011;422;51.280;7.236;2022-09-29T16:02:26;5.00;;;4.43;;
870;SDS011;422;51.280;7.236;2022-09-29T16:04:57;4.40;;;3.57;;
870;SDS011;422;51.280;7.236;2022-09-29T16:07:28;7.90;;;5.20;;
870;SDS011;422;51.280;7.236;2022-09-29T16:09:59;5.30;;;4.50;;
870;SDS011;422;51.280;7.236;2022-09-29T16:12:34;5.07;;;4.53;;
870;SDS011;422;51.280;7.236;2022-09-29T16:15:04;4.33;;;3.67;;
870;SDS011;422;51.280;7.236;2022-09-29T16:17:41;7.50;;;2.90;;
870;SDS011;422;51.280;7.236;2022-09-29T16:20:12;4.17;;;3.77;;
870;SDS011;422;51.280;7.236;2022-09-29T16:22:46;4.40;;;4.00;;
870;SDS011;422;51.280;7.236;2022-09-29T16:25:19;5.30;;;4.80;;
870;SDS011;422;51.280;7.236;2022-09-29T16:27:52;3.70;;;3.40;;
870;SDS011;422;51.280;7.236;2022-09-29T16:30:25;5.53;;;3.43;;
870;SDS011;422;51.280;7.236;2022-09-29T16:33:05;5.03;;;2.83;;
870;SDS011;422;51.280;7.236;2022-09-29T16:38:29;4.70;;;3.20;;
870;SDS011;422;51.280;7.236;2022-09-29T16:41:11;3.93;;;3.63;;
870;SDS011;422;51.280;7.236;2022-09-29T16:43:46;4.37;;;3.53;;
870;SDS011;422;51.280;7.236;2022-09-29T16:46:17;5.30;;;3.60;;
870;SDS011;422;51.280;7.236;2022-09-29T16:48:46;3.93;;;3.00;;
870;SDS011;422;51.280;7.236;2022-09-29T16:51:17;9.70;;;6.10;;
870;SDS011;422;51.280;7.236;2022-09-29T16:53:52;5.60;;;4.90;;
870;SDS011;422;51.280;7.236;2022-09-29T16:56:25;7.27;;;5.20;;
870;SDS011;422;51.280;7.236;2022-09-29T16:59:02;8.40;;;5.10;;
870;SDS011;422;51.280;7.236;2022-09-29T17:01:36;6.40;;;5.30;;
870;SDS011;422;51.280;7.236;2022-09-29T17:04:05;5.90;;;5.13;;